Time;durP1;ratioP1;P1;durP2;ratioP2;P2;SDS_P1;SDS_P2;PMS_P1;PMS_P2;Temp;Humidity;BMP_temperature;BMP_pressure;BME280_temperature;BME280_humidity;BME280_pressure;Samples;Min_cycle;Max_cycle;Signal;HPM_P1;HPM_P2
2023/09/30 00:00:58;;;;;;;15.38;4.65;;;10.90;99.90;;;;;;5023979;28;20041;-83
2023/09/30 00:03:24;;;;;;;12.55;4.80;;;10.90;99.90;;;;;;5003243;28;20624;-83
2023/09/30 00:05:50;;;;;;;16.48;4.93;;;10.90;99.90;;;;;;5007226;28;20525;-83
2023/09/30 00:08:16;;;;;;;14.57;4.93;;;10.90;99.90;;;;;;5005693;28;20428;-83
2023/09/30 00:10:41;;;;;;;11.93;4.28;;;10.90;99.90;;;;;;5005767;28;20102;-83
2023/09/30 00:13:07;;;;;;;12.20;4.60;;;10.90;99.90;;;;;;5006733;28;20415;-83
2023/09/30 00:15:33;;;;;;;14.30;4.63;;;10.90;99.90;;;;;;5021376;28;20036;-83
2023/09/30 00:18:01;;;;;;;13.75;4.53;;;11.00;99.90;;;;;;5001931;28;20051;-82
2023/09/30 00:20:30;;;;;;;14.30;4.32;;;10.90;99.90;;;;;;5003273;28;20116;-82
2023/09/30 00:22:55;;;;;;;9.57;4.45;;;10.90;99.90;;;;;;5017305;28;20375;-83
2023/09/30 00:25:21;;;;;;;15.48;4.25;;;11.00;99.90;;;;;;5008886;28;20037;-83
2023/09/30 00:27:47;;;;;;;18.70;4.90;;;11.00;99.90;;;;;;5022914;28;20650;-82
2023/09/30 00:30:13;;;;;;;12.13;4.68;;;11.00;99.90;;;;;;5020322;28;20068;-83
2023/09/30 00:32:39;;;;;;;23.83;4.70;;;11.10;99.90;;;;;;5022486;28;20180;-82
2023/09/30 00:35:11;;;;;;;14.80;4.85;;;11.10;99.90;;;;;;5018074;28;20037;-83
2023/09/30 00:37:38;;;;;;;13.02;4.60;;;11.20;99.90;;;;;;5020875;28;20033;-83
2023/09/30 00:40:04;;;;;;;15.05;4.57;;;11.20;99.90;;;;;;5002992;28;20052;-82
2023/09/30 00:42:30;;;;;;;15.55;4.43;;;11.20;99.90;;;;;;5021730;28;20440;-83
2023/09/30 00:44:56;;;;;;;16.48;4.63;;;11.20;99.90;;;;;;5007651;28;20516;-82
2023/09/30 00:47:23;;;;;;;14.43;4.35;;;11.30;99.90;;;;;;5004353;28;20048;-83
2023/09/30 00:49:50;;;;;;;14.73;4.68;;;11.30;99.90;;;;;;5006113;28;20122;-83
2023/09/30 00:52:17;;;;;;;12.75;4.35;;;11.20;99.90;;;;;;5003894;28;20443;-83
2023/09/30 00:54:43;;;;;;;15.20;3.90;;;11.20;99.90;;;;;;5006191;28;20063;-82
2023/09/30 00:57:12;;;;;;;16.00;4.68;;;11.30;99.90;;;;;;5003833;28;20535;-83
2023/09/30 00:59:40;;;;;;;15.70;4.07;;;11.30;99.90;;;;;;5000881;28;20053;-83
2023/09/30 01:02:06;;;;;;;13.43;4.20;;;11.20;99.90;;;;;;5023128;28;20125;-83
2023/09/30 01:04:32;;;;;;;15.00;4.35;;;11.20;99.90;;;;;;5022766;28;20136;-83
2023/09/30 01:06:57;;;;;;;12.45;3.95;;;11.30;99.90;;;;;;5025832;28;20060;-83
2023/09/30 01:09:24;;;;;;;10.18;3.72;;;11.20;99.90;;;;;;5006839;28;20042;-83
2023/09/30 01:11:50;;;;;;;15.63;4.30;;;11.20;99.90;;;;;;5026976;28;20123;-83
2023/09/30 01:14:28;;;;;;;11.13;4.25;;;11.20;99.90;;;;;;5020445;28;20176;-83
2023/09/30 01:16:54;;;;;;;9.98;3.70;;;11.20;99.90;;;;;;5035724;28;20037;-83
2023/09/30 01:19:20;;;;;;;16.00;4.15;;;11.20;99.90;;;;;;5025106;28;20496;-82
2023/09/30 01:21:48;;;;;;;12.93;4.43;;;11.20;99.90;;;;;;5004679;28;20040;-83
2023/09/30 01:24:15;;;;;;;12.27;3.95;;;11.20;99.90;;;;;;5009447;28;20049;-83
2023/09/30 01:26:42;;;;;;;10.85;3.78;;;11.20;99.90;;;;;;5009041;28;20094;-83
2023/09/30 01:29:11;;;;;;;12.50;3.55;;;11.20;99.90;;;;;;5021131;28;20135;-83
2023/09/30 01:31:37;;;;;;;11.57;3.80;;;11.20;99.90;;;;;;5007403;28;20111;-83
2023/09/30 01:34:03;;;;;;;10.43;3.60;;;11.20;99.90;;;;;;5010326;28;20040;-83
2023/09/30 01:36:28;;;;;;;10.23;4.07;;;11.20;99.90;;;;;;5023886;28;20049;-83
2023/09/30 01:38:54;;;;;;;10.63;3.83;;;11.20;99.90;;;;;;5017818;28;20640;-83
2023/09/30 01:41:20;;;;;;;13.65;4.32;;;11.20;99.90;;;;;;5005892;28;20528;-83
2023/09/30 01:43:46;;;;;;;9.25;3.90;;;11.20;99.90;;;;;;5007779;28;20033;-82
2023/09/30 01:46:12;;;;;;;9.25;3.75;;;11.20;99.90;;;;;;5007363;28;20047;-83
2023/09/30 01:48:38;;;;;;;14.35;4.40;;;11.30;99.90;;;;;;5019897;28;20124;-82
2023/09/30 01:51:04;;;;;;;16.80;4.57;;;11.30;99.90;;;;;;5005775;28;20442;-83
2023/09/30 01:53:29;;;;;;;19.98;5.07;;;11.30;99.90;;;;;;5022521;28;20040;-83
2023/09/30 01:55:55;;;;;;;13.98;4.07;;;11.40;99.90;;;;;;5007570;28;20061;-83
2023/09/30 01:58:21;;;;;;;10.70;3.95;;;11.50;99.90;;;;;;5003177;28;20103;-83
2023/09/30 02:00:46;;;;;;;9.90;3.88;;;11.50;99.90;;;;;;5024201;28;20044;-82
2023/09/30 02:03:12;;;;;;;8.80;3.58;;;11.50;99.90;;;;;;5003275;28;20036;-83
2023/09/30 02:05:39;;;;;;;16.05;4.63;;;11.60;99.90;;;;;;5008387;28;20315;-83
2023/09/30 02:08:05;;;;;;;11.95;3.85;;;11.60;99.90;;;;;;5026759;28;20067;-83
2023/09/30 02:10:35;;;;;;;13.70;3.80;;;11.50;99.90;;;;;;5008291;28;20053;-83
2023/09/30 02:13:01;;;;;;;10.85;4.47;;;11.60;99.90;;;;;;5014883;28;20049;-82
2023/09/30 02:15:27;;;;;;;13.23;4.10;;;11.60;99.90;;;;;;5001952;28;20052;-83
2023/09/30 02:17:53;;;;;;;12.57;3.60;;;11.60;99.90;;;;;;5002789;28;20037;-83
2023/09/30 02:20:25;;;;;;;14.52;4.10;;;11.60;99.90;;;;;;5008857;28;20507;-83
2023/09/30 02:22:52;;;;;;;7.60;3.50;;;11.60;99.90;;;;;;5022773;28;20029;-83
2023/09/30 02:25:18;;;;;;;12.68;4.15;;;11.60;99.90;;;;;;5005120;28;20038;-83
2023/09/30 02:27:44;;;;;;;12.27;3.65;;;11.60;99.90;;;;;;4998054;28;20042;-83
2023/09/30 02:30:11;;;;;;;10.90;3.92;;;11.50;99.90;;;;;;5024552;28;20474;-83
2023/09/30 02:32:40;;;;;;;12.70;3.67;;;11.50;99.90;;;;;;5018269;28;20045;-83
2023/09/30 02:35:07;;;;;;;10.07;4.07;;;11.50;99.90;;;;;;5008752;28;20048;-83
2023/09/30 02:37:35;;;;;;;12.20;4.00;;;11.50;99.90;;;;;;5006553;28;20115;-83
2023/09/30 02:40:04;;;;;;;13.48;3.83;;;11.60;99.90;;;;;;5009376;28;20049;-83
2023/09/30 02:42:30;;;;;;;11.80;4.20;;;11.60;99.90;;;;;;5008215;28;20503;-83
2023/09/30 02:44:55;;;;;;;12.75;4.40;;;11.60;99.90;;;;;;5008107;28;20331;-83
2023/09/30 02:47:21;;;;;;;15.63;5.15;;;11.60;99.90;;;;;;5024247;28;20079;-82
2023/09/30 02:49:47;;;;;;;11.63;3.47;;;11.70;99.90;;;;;;5005917;28;20109;-83
2023/09/30 02:52:12;;;;;;;9.90;3.85;;;11.70;99.90;;;;;;5002915;28;20116;-83
2023/09/30 02:54:38;;;;;;;13.77;3.95;;;11.80;99.90;;;;;;5007384;28;20629;-83
2023/09/30 02:57:03;;;;;;;9.75;4.25;;;11.80;99.90;;;;;;5019803;28;20514;-83
2023/09/30 02:59:30;;;;;;;16.95;4.18;;;11.90;99.90;;;;;;5020791;28;20404;-83
2023/09/30 03:01:56;;;;;;;12.80;3.92;;;11.80;99.90;;;;;;5017716;28;20500;-83
2023/09/30 03:04:25;;;;;;;17.38;4.93;;;11.80;99.90;;;;;;5007401;28;20037;-83
2023/09/30 03:06:51;;;;;;;10.13;4.07;;;11.80;99.90;;;;;;5020653;28;20075;-83
2023/09/30 03:09:17;;;;;;;13.48;4.22;;;11.80;99.90;;;;;;5019288;28;20484;-83
2023/09/30 03:11:43;;;;;;;16.52;4.40;;;11.70;99.90;;;;;;5022478;28;20048;-83
2023/09/30 03:14:11;;;;;;;13.00;4.70;;;11.80;99.90;;;;;;5005802;28;20510;-83
2023/09/30 03:16:38;;;;;;;9.52;3.60;;;11.80;99.90;;;;;;5020316;28;20048;-83
2023/09/30 03:19:08;;;;;;;9.30;3.90;;;11.80;99.90;;;;;;5007229;28;20045;-83
2023/09/30 03:21:35;;;;;;;12.00;4.50;;;11.80;99.90;;;;;;5005050;28;20040;-83
2023/09/30 03:24:02;;;;;;;11.90;4.75;;;11.80;99.90;;;;;;5002526;28;20472;-83
2023/09/30 03:26:31;;;;;;;13.75;4.38;;;11.90;99.90;;;;;;5024060;28;20032;-82
2023/09/30 03:28:57;;;;;;;10.63;4.45;;;11.90;99.90;;;;;;5007036;28;20048;-82
2023/09/30 03:31:23;;;;;;;12.80;4.30;;;11.90;99.90;;;;;;5005781;28;20462;-83
2023/09/30 03:33:51;;;;;;;13.98;4.50;;;11.90;99.90;;;;;;5008593;28;20049;-83
2023/09/30 03:36:18;;;;;;;14.10;4.40;;;11.90;99.90;;;;;;5022529;28;20399;-83
2023/09/30 03:38:44;;;;;;;13.13;5.10;;;12.00;99.90;;;;;;4998963;28;20416;-83
2023/09/30 03:41:13;;;;;;;10.77;4.55;;;11.90;99.90;;;;;;5021878;28;20514;-82
2023/09/30 03:43:41;;;;;;;17.35;4.93;;;12.00;99.90;;;;;;5008411;28;20033;-88
2023/09/30 03:46:11;;;;;;;13.85;4.85;;;11.90;99.90;;;;;;5009931;28;20443;-88
2023/09/30 03:48:39;;;;;;;9.40;4.50;;;11.80;99.90;;;;;;5011691;28;20040;-88
2023/09/30 03:51:14;;;;;;;11.75;4.85;;;11.80;99.90;;;;;;5021802;28;20458;-88
2023/09/30 03:53:44;;;;;;;15.30;4.70;;;11.80;99.90;;;;;;5008356;28;20104;-88
2023/09/30 03:56:11;;;;;;;8.95;4.90;;;11.70;99.90;;;;;;5020579;28;20055;-88
2023/09/30 03:58:38;;;;;;;10.50;4.53;;;11.70;99.90;;;;;;5021125;28;20048;-88
2023/09/30 04:01:04;;;;;;;10.32;5.28;;;11.60;99.90;;;;;;5003281;28;20468;-88
2023/09/30 04:03:33;;;;;;;11.38;5.00;;;11.60;99.90;;;;;;5021104;28;20057;-88
2023/09/30 04:05:59;;;;;;;14.02;5.00;;;11.60;99.90;;;;;;5008138;28;20033;-89
2023/09/30 04:08:24;;;;;;;16.45;5.20;;;11.50;99.90;;;;;;5008378;28;20086;-88
2023/09/30 04:10:50;;;;;;;15.68;5.68;;;11.50;99.90;;;;;;5004189;28;20041;-89
2023/09/30 04:13:16;;;;;;;13.88;5.50;;;11.50;99.90;;;;;;5021651;28;20055;-88
2023/09/30 04:15:44;;;;;;;15.13;5.80;;;11.50;99.90;;;;;;5021711;28;20037;-87
2023/09/30 04:18:11;;;;;;;12.95;5.25;;;11.50;99.90;;;;;;5025075;28;20044;-88
2023/09/30 04:20:39;;;;;;;16.50;6.35;;;11.50;99.90;;;;;;5006083;28;20702;-88
2023/09/30 04:23:06;;;;;;;16.55;6.05;;;11.40;99.90;;;;;;5005850;28;20041;-88
2023/09/30 04:25:35;;;;;;;15.57;5.75;;;11.50;99.90;;;;;;5005401;28;20071;-88
2023/09/30 04:28:01;;;;;;;18.15;6.78;;;11.40;99.90;;;;;;5004943;28;20449;-89
2023/09/30 04:30:27;;;;;;;14.27;5.88;;;11.40;99.90;;;;;;5005096;28;20091;-89
2023/09/30 04:32:53;;;;;;;14.90;6.30;;;11.40;99.90;;;;;;5005358;28;20033;-88
2023/09/30 04:35:18;;;;;;;13.02;6.20;;;11.40;99.90;;;;;;5026876;28;20147;-88
2023/09/30 04:37:44;;;;;;;13.52;6.45;;;11.40;99.90;;;;;;5010100;28;20091;-88
2023/09/30 04:40:15;;;;;;;15.73;6.32;;;11.40;99.90;;;;;;5011125;28;20049;-88
2023/09/30 04:42:43;;;;;;;18.55;6.45;;;11.30;99.90;;;;;;5024145;28;20128;-89
2023/09/30 04:45:10;;;;;;;16.30;7.13;;;11.30;99.90;;;;;;5025325;28;20069;-89
2023/09/30 04:47:36;;;;;;;12.77;6.38;;;11.40;99.90;;;;;;5007485;28;20045;-89
2023/09/30 04:50:04;;;;;;;15.00;6.72;;;11.30;99.90;;;;;;5027670;28;20045;-89
2023/09/30 04:52:30;;;;;;;16.35;7.05;;;11.30;99.90;;;;;;5010550;28;20097;-88
2023/09/30 04:54:56;;;;;;;17.60;7.10;;;11.20;99.90;;;;;;5026306;28;20073;-89
2023/09/30 04:57:22;;;;;;;16.45;6.80;;;11.20;99.90;;;;;;5013849;28;20099;-88
2023/09/30 04:59:48;;;;;;;21.90;6.30;;;11.20;99.90;;;;;;5012464;28;20116;-89
2023/09/30 05:02:15;;;;;;;17.35;7.15;;;11.20;99.90;;;;;;5010814;28;20058;-89
2023/09/30 05:04:42;;;;;;;16.27;7.07;;;11.10;99.90;;;;;;5026974;28;20040;-88
2023/09/30 05:07:08;;;;;;;14.50;6.20;;;11.10;99.90;;;;;;5010859;28;20182;-89
2023/09/30 05:09:33;;;;;;;19.15;6.47;;;11.10;99.90;;;;;;5011793;28;20124;-87
2023/09/30 05:11:59;;;;;;;19.13;6.45;;;11.10;99.90;;;;;;5012007;28;20443;-89
2023/09/30 05:14:24;;;;;;;17.88;6.82;;;11.00;99.90;;;;;;5013548;28;20044;-88
2023/09/30 05:16:50;;;;;;;19.58;6.60;;;11.00;99.90;;;;;;5025965;28;20060;-89
2023/09/30 05:19:16;;;;;;;15.57;7.15;;;11.00;99.90;;;;;;5020009;28;20053;-89
2023/09/30 05:21:42;;;;;;;16.75;7.20;;;11.00;99.90;;;;;;5022002;28;20040;-89
2023/09/30 05:24:08;;;;;;;14.00;6.35;;;10.90;99.90;;;;;;5011542;28;20056;-88
2023/09/30 05:26:34;;;;;;;17.85;6.75;;;10.90;99.90;;;;;;5010299;28;20710;-89
2023/09/30 05:28:59;;;;;;;14.57;7.13;;;10.90;99.90;;;;;;5023598;28;20053;-89
2023/09/30 05:31:25;;;;;;;14.25;6.32;;;10.70;99.90;;;;;;5024064;28;20045;-89
2023/09/30 05:33:51;;;;;;;16.20;7.03;;;10.80;99.90;;;;;;5028355;28;20102;-89
2023/09/30 05:36:16;;;;;;;14.75;6.43;;;10.80;99.90;;;;;;5025231;28;20068;-89
2023/09/30 05:38:42;;;;;;;12.50;6.65;;;10.80;99.90;;;;;;5010383;28;20384;-88
2023/09/30 05:41:08;;;;;;;20.30;7.18;;;10.80;99.90;;;;;;5008395;28;20060;-88
2023/09/30 05:43:34;;;;;;;14.93;6.97;;;10.80;99.90;;;;;;5022048;28;20145;-88
2023/09/30 05:45:59;;;;;;;13.05;6.65;;;10.80;99.90;;;;;;5023330;28;20041;-88
2023/09/30 05:48:25;;;;;;;18.05;7.55;;;10.90;99.90;;;;;;5002863;28;20064;-88
2023/09/30 05:50:51;;;;;;;14.73;6.78;;;10.80;99.90;;;;;;5008816;28;20412;-89
2023/09/30 05:53:17;;;;;;;15.75;6.68;;;10.90;99.90;;;;;;5009685;28;20045;-89
2023/09/30 05:55:43;;;;;;;20.67;7.43;;;10.90;99.90;;;;;;5010757;28;20487;-88
2023/09/30 05:58:17;;;;;;;14.82;6.65;;;10.90;99.90;;;;;;5007717;28;20049;-89
2023/09/30 06:00:43;;;;;;;18.20;7.05;;;11.00;99.90;;;;;;5006070;28;20037;-88
2023/09/30 06:03:10;;;;;;;17.38;7.32;;;10.90;99.90;;;;;;5013856;28;20120;-88
2023/09/30 06:05:42;;;;;;;18.05;7.65;;;10.90;99.90;;;;;;5009794;28;20053;-89
2023/09/30 06:08:10;;;;;;;15.23;7.28;;;10.80;99.90;;;;;;5026862;28;20045;-88
2023/09/30 06:10:38;;;;;;;20.13;7.78;;;10.80;99.90;;;;;;5023720;28;20508;-88
2023/09/30 06:13:04;;;;;;;18.45;8.07;;;10.80;99.90;;;;;;5038627;28;20377;-88
2023/09/30 06:15:31;;;;;;;26.35;7.90;;;10.90;99.90;;;;;;5005683;28;20432;-89
2023/09/30 06:17:57;;;;;;;13.43;7.35;;;10.90;99.90;;;;;;5011762;28;20041;-88
2023/09/30 06:20:26;;;;;;;14.50;7.50;;;10.90;99.90;;;;;;5004942;28;20480;-89
2023/09/30 06:22:53;;;;;;;18.63;7.53;;;11.00;99.90;;;;;;5016615;28;20416;-88
2023/09/30 06:25:21;;;;;;;14.25;6.10;;;11.00;99.90;;;;;;5026492;28;20041;-89
2023/09/30 06:27:47;;;;;;;20.15;6.10;;;11.00;99.90;;;;;;5021493;28;20118;-88
2023/09/30 06:30:15;;;;;;;17.23;6.70;;;11.20;99.90;;;;;;5010453;28;20436;-88
2023/09/30 06:32:42;;;;;;;13.38;6.63;;;11.20;99.90;;;;;;5024621;28;20084;-90
2023/09/30 06:35:10;;;;;;;17.05;6.72;;;11.30;99.90;;;;;;5025532;28;20641;-89
2023/09/30 06:37:40;;;;;;;19.55;6.90;;;11.30;99.90;;;;;;5006901;28;20036;-88
2023/09/30 06:40:09;;;;;;;12.20;6.15;;;11.40;99.90;;;;;;5010866;28;20130;-89
2023/09/30 06:42:35;;;;;;;15.48;7.05;;;11.50;99.90;;;;;;5021153;28;20049;-89
2023/09/30 06:45:05;;;;;;;17.33;6.68;;;11.60;99.90;;;;;;5022175;28;20047;-89
2023/09/30 06:47:33;;;;;;;13.40;6.95;;;11.70;99.90;;;;;;5023310;28;20412;-88
2023/09/30 06:50:07;;;;;;;21.50;7.13;;;11.80;99.90;;;;;;5020318;28;20040;-88
2023/09/30 06:52:34;;;;;;;14.65;6.90;;;11.80;99.90;;;;;;5004532;28;20037;-88
2023/09/30 06:54:59;;;;;;;16.63;7.13;;;11.90;99.90;;;;;;5016739;28;20084;-89
2023/09/30 06:57:25;;;;;;;12.73;7.30;;;12.00;99.90;;;;;;5022170;28;20045;-88
2023/09/30 06:59:51;;;;;;;17.27;7.63;;;12.10;99.90;;;;;;5007271;28;20037;-88
2023/09/30 07:02:16;;;;;;;19.17;7.38;;;12.20;99.90;;;;;;5010277;28;20052;-89
2023/09/30 07:04:42;;;;;;;16.15;7.55;;;12.30;99.90;;;;;;5010792;28;20068;-89
2023/09/30 07:07:08;;;;;;;15.65;7.38;;;12.40;99.90;;;;;;5009563;28;20043;-88
2023/09/30 07:09:34;;;;;;;17.95;7.68;;;12.50;99.90;;;;;;5022032;28;20519;-90
2023/09/30 07:11:59;;;;;;;21.88;7.93;;;12.60;99.90;;;;;;5020482;28;20045;-88
2023/09/30 07:14:25;;;;;;;16.60;7.45;;;12.70;99.90;;;;;;5023599;28;20052;-88
2023/09/30 07:16:51;;;;;;;19.00;8.30;;;12.80;99.90;;;;;;5008508;28;20041;-88
2023/09/30 07:19:16;;;;;;;16.40;7.55;;;12.90;99.90;;;;;;5002670;28;20408;-88
2023/09/30 07:21:42;;;;;;;14.75;7.25;;;13.00;99.90;;;;;;5022984;28;20404;-88
2023/09/30 07:24:08;;;;;;;14.82;7.32;;;13.10;99.90;;;;;;5018234;28;20079;-88
2023/09/30 07:26:33;;;;;;;14.95;8.00;;;13.10;99.90;;;;;;5009582;28;20373;-89
2023/09/30 07:28:59;;;;;;;15.55;7.90;;;13.20;99.90;;;;;;5027024;28;20049;-88
2023/09/30 07:31:39;;;;;;;16.48;7.57;;;13.20;99.90;;;;;;5016631;28;20404;-89
2023/09/30 07:34:04;;;;;;;15.93;7.72;;;13.30;99.90;;;;;;5005363;28;20049;-88
2023/09/30 07:36:30;;;;;;;14.15;7.55;;;13.30;99.90;;;;;;5004777;28;20432;-88
2023/09/30 07:38:56;;;;;;;15.13;6.82;;;13.40;99.90;;;;;;5031481;28;20676;-89
2023/09/30 07:41:21;;;;;;;13.43;7.15;;;13.50;99.90;;;;;;4999688;28;20049;-89
2023/09/30 07:43:47;;;;;;;16.17;7.80;;;13.60;99.90;;;;;;4988018;28;20496;-89
2023/09/30 07:46:15;;;;;;;14.43;6.35;;;13.70;99.90;;;;;;5003889;28;20400;-88
2023/09/30 07:48:41;;;;;;;12.70;6.82;;;13.70;99.90;;;;;;4985073;28;20030;-89
2023/09/30 07:51:12;;;;;;;17.00;7.13;;;13.80;99.90;;;;;;4990905;28;20053;-89
2023/09/30 07:53:38;;;;;;;16.65;7.60;;;13.90;99.90;;;;;;5005715;28;20052;-89
2023/09/30 07:56:04;;;;;;;16.88;6.85;;;14.00;99.90;;;;;;4983004;28;20037;-89
2023/09/30 07:58:31;;;;;;;13.10;7.82;;;14.10;99.90;;;;;;4988002;28;20042;-89
2023/09/30 08:00:56;;;;;;;15.50;8.23;;;14.10;99.90;;;;;;4989478;28;20455;-88
2023/09/30 08:03:22;;;;;;;12.55;7.30;;;14.20;99.90;;;;;;4986841;28;20037;-88
2023/09/30 08:05:48;;;;;;;13.95;7.25;;;14.30;99.90;;;;;;4989861;28;20053;-89
2023/09/30 08:08:14;;;;;;;16.73;7.18;;;14.40;99.90;;;;;;5002797;28;20551;-88
2023/09/30 08:10:40;;;;;;;14.57;7.20;;;14.60;99.90;;;;;;4988751;28;20096;-89
2023/09/30 08:13:05;;;;;;;16.70;7.95;;;14.60;99.90;;;;;;4986359;28;20056;-88
2023/09/30 08:15:31;;;;;;;12.93;7.05;;;14.70;99.90;;;;;;5001885;28;20497;-88
2023/09/30 08:17:56;;;;;;;11.70;6.38;;;14.80;99.90;;;;;;4997385;28;20078;-89
2023/09/30 08:20:22;;;;;;;13.15;6.65;;;14.90;99.90;;;;;;4986075;28;20564;-88
2023/09/30 08:22:53;;;;;;;14.65;8.20;;;15.00;99.90;;;;;;4985148;28;20041;-89
2023/09/30 08:25:19;;;;;;;12.85;6.97;;;15.00;99.90;;;;;;4987753;28;20041;-89
2023/09/30 08:27:49;;;;;;;13.80;6.70;;;15.10;99.90;;;;;;5001822;28;20030;-89
2023/09/30 08:30:15;;;;;;;11.27;6.15;;;15.20;99.90;;;;;;5005153;28;20077;-88
2023/09/30 08:32:41;;;;;;;12.38;6.47;;;15.40;99.90;;;;;;4985347;28;20043;-89
2023/09/30 08:35:07;;;;;;;13.10;6.57;;;15.40;99.90;;;;;;5002653;28;20041;-89
2023/09/30 08:37:33;;;;;;;18.23;6.88;;;15.50;99.90;;;;;;5003346;28;20132;-89
2023/09/30 08:39:59;;;;;;;15.65;6.15;;;15.60;99.90;;;;;;4990082;28;20336;-89
2023/09/30 08:42:32;;;;;;;11.05;5.90;;;15.70;99.90;;;;;;5002117;28;20120;-89
2023/09/30 08:44:58;;;;;;;12.20;5.47;;;15.80;99.90;;;;;;4987884;28;20029;-89
2023/09/30 08:47:27;;;;;;;12.65;6.20;;;15.90;99.90;;;;;;5002981;28;20045;-89
2023/09/30 08:49:56;;;;;;;12.73;5.85;;;16.00;99.90;;;;;;4983059;28;20124;-89
2023/09/30 08:52:23;;;;;;;16.08;6.00;;;16.20;99.90;;;;;;5004287;28;20042;-89
2023/09/30 08:54:48;;;;;;;10.45;5.45;;;16.10;99.90;;;;;;4990103;28;20041;-88
2023/09/30 08:57:21;;;;;;;13.32;5.32;;;16.20;99.90;;;;;;4987459;28;20044;-90
2023/09/30 08:59:49;;;;;;;16.67;5.13;;;16.40;99.90;;;;;;4983643;28;20095;-90
2023/09/30 09:02:15;;;;;;;10.05;4.90;;;16.40;99.90;;;;;;5013470;28;20108;-89
2023/09/30 09:04:43;;;;;;;14.52;5.80;;;16.60;99.90;;;;;;4985632;28;20037;-89
2023/09/30 09:07:08;;;;;;;9.13;4.45;;;16.70;99.90;;;;;;5015991;28;20033;-89
2023/09/30 09:09:34;;;;;;;10.73;4.53;;;16.80;99.90;;;;;;4986337;28;20404;-88
2023/09/30 09:11:59;;;;;;;12.73;4.82;;;16.80;99.90;;;;;;4987659;28;20049;-90
2023/09/30 09:14:40;;;;;;;10.27;4.65;;;16.90;99.90;;;;;;4990125;28;20072;-91
2023/09/30 09:17:07;;;;;;;10.43;4.13;;;16.90;99.90;;;;;;4996950;28;20086;-90
2023/09/30 09:19:34;;;;;;;11.27;3.95;;;17.20;99.90;;;;;;4986442;28;20389;-90
2023/09/30 09:22:04;;;;;;;9.95;4.10;;;17.20;99.90;;;;;;5005833;28;20046;-90
2023/09/30 09:24:32;;;;;;;8.40;4.10;;;17.40;99.90;;;;;;4992952;28;20045;-92
2023/09/30 09:27:08;;;;;;;10.85;3.50;;;17.50;99.90;;;;;;4997065;28;20037;-90
2023/09/30 09:29:36;;;;;;;7.68;2.92;;;17.50;99.90;;;;;;5009463;28;20045;-90
2023/09/30 09:32:09;;;;;;;13.13;4.22;;;17.70;99.90;;;;;;4991107;28;20034;-91
2023/09/30 09:34:41;;;;;;;10.02;3.35;;;17.70;99.90;;;;;;4990636;28;20037;-90
2023/09/30 09:37:18;;;;;;;10.57;3.28;;;17.80;99.90;;;;;;4991664;28;20045;-90
2023/09/30 09:39:55;;;;;;;7.00;2.97;;;17.80;99.90;;;;;;4990374;28;20136;-90
2023/09/30 09:42:29;;;;;;;9.27;2.83;;;17.90;99.90;;;;;;5017319;28;20538;-90
2023/09/30 09:44:56;;;;;;;7.05;2.53;;;18.00;99.90;;;;;;5022911;28;20026;-91
2023/09/30 09:47:26;;;;;;;5.78;2.85;;;18.00;99.90;;;;;;5018571;28;20775;-91
2023/09/30 09:49:53;;;;;;;9.05;2.85;;;18.10;99.90;;;;;;4990828;28;20288;-90
2023/09/30 09:52:22;;;;;;;8.40;2.30;;;18.10;99.90;;;;;;5003239;28;20135;-90
2023/09/30 09:54:50;;;;;;;10.30;3.00;;;18.20;99.90;;;;;;5003237;28;20037;-91
2023/09/30 09:57:17;;;;;;;8.48;2.63;;;18.10;99.90;;;;;;4990926;28;20048;-91
2023/09/30 09:59:46;;;;;;;6.95;2.40;;;18.30;99.90;;;;;;4989079;28;20145;-91
2023/09/30 10:02:14;;;;;;;7.75;2.67;;;18.60;99.90;;;;;;4991025;28;20049;-91
2023/09/30 10:04:42;;;;;;;9.32;2.70;;;18.80;99.90;;;;;;4993144;28;20115;-91
2023/09/30 10:07:14;;;;;;;8.65;2.50;;;18.90;99.90;;;;;;4996010;28;20116;-91
2023/09/30 10:09:46;;;;;;;7.00;2.33;;;18.70;99.90;;;;;;4988439;28;20037;-90
2023/09/30 10:12:12;;;;;;;8.52;2.47;;;19.00;99.90;;;;;;4990398;28;20042;-90
2023/09/30 10:14:37;;;;;;;11.40;2.15;;;18.60;99.90;;;;;;5008063;28;20096;-91
2023/09/30 10:17:03;;;;;;;7.13;2.25;;;18.50;99.90;;;;;;4992057;28;20180;-90
2023/09/30 10:19:30;;;;;;;9.68;2.40;;;18.80;99.90;;;;;;5002104;28;20033;-89
2023/09/30 10:22:27;;;;;;;5.75;1.90;;;18.50;99.90;;;;;;4989796;28;20038;-91
2023/09/30 10:24:57;;;;;;;9.43;2.05;;;18.40;99.90;;;;;;5020153;28;20034;-92
2023/09/30 10:27:28;;;;;;;7.00;2.08;;;19.00;99.90;;;;;;5005241;28;20029;-91
2023/09/30 10:30:09;;;;;;;9.32;1.92;;;19.20;99.90;;;;;;4987992;28;20037;-91
2023/09/30 10:32:50;;;;;;;6.80;2.10;;;19.40;99.90;;;;;;5003905;28;20048;-91
2023/09/30 10:35:31;;;;;;;6.35;2.00;;;19.80;99.90;;;;;;4998786;28;20592;-92
2023/09/30 10:38:22;;;;;;;5.20;2.58;;;19.60;99.90;;;;;;4992681;28;20374;-91
2023/09/30 10:40:52;;;;;;;5.63;1.80;;;19.50;99.90;;;;;;4998653;28;20089;-91
2023/09/30 10:43:40;;;;;;;5.85;2.10;;;19.40;99.90;;;;;;4989340;28;20050;-90
2023/09/30 10:46:27;;;;;;;5.20;2.00;;;19.40;99.90;;;;;;4987958;28;20043;-90
2023/09/30 10:48:53;;;;;;;6.38;2.10;;;19.80;99.90;;;;;;5003893;28;20175;-90
2023/09/30 10:51:25;;;;;;;6.35;2.00;;;19.50;99.90;;;;;;4996830;28;20037;-91
2023/09/30 10:53:56;;;;;;;8.15;2.13;;;19.30;99.90;;;;;;4992244;28;20041;-91
2023/09/30 10:56:23;;;;;;;6.28;1.52;;;19.40;99.90;;;;;;5000732;28;20053;-91
2023/09/30 10:58:51;;;;;;;6.50;1.77;;;19.10;99.90;;;;;;4989745;28;20189;-90
2023/09/30 11:01:21;;;;;;;4.78;1.80;;;18.90;99.90;;;;;;4998235;28;20104;-90
2023/09/30 11:03:50;;;;;;;9.38;1.70;;;19.20;99.90;;;;;;4990507;28;20045;-91
2023/09/30 11:06:19;;;;;;;7.38;1.73;;;19.20;99.90;;;;;;4984100;28;20116;-91
2023/09/30 11:08:56;;;;;;;5.25;1.90;;;19.10;99.90;;;;;;5007414;28;20046;-91
2023/09/30 11:11:48;;;;;;;5.20;1.92;;;19.50;99.90;;;;;;4994566;28;20037;-91
2023/09/30 11:14:18;;;;;;;7.65;1.98;;;19.80;99.90;;;;;;5005644;28;20111;-89
2023/09/30 11:16:44;;;;;;;7.82;2.03;;;20.80;99.90;;;;;;5003966;28;20038;-91
2023/09/30 11:19:11;;;;;;;8.02;2.22;;;20.70;99.90;;;;;;5001839;28;20068;-90
2023/09/30 11:21:37;;;;;;;6.10;3.13;;;20.90;99.90;;;;;;5002263;28;20041;-91
2023/09/30 11:24:04;;;;;;;8.05;1.80;;;21.20;99.90;;;;;;4989384;28;20075;-90
2023/09/30 11:26:33;;;;;;;5.75;1.75;;;21.00;99.90;;;;;;5006524;28;20045;-92
2023/09/30 11:29:16;;;;;;;5.88;1.73;;;20.60;99.90;;;;;;4988757;28;20298;-92
2023/09/30 11:31:45;;;;;;;5.47;1.95;;;20.70;99.90;;;;;;4987219;28;20061;-91
2023/09/30 11:34:11;;;;;;;4.28;1.70;;;20.70;99.90;;;;;;4992522;28;20465;-90
2023/09/30 11:36:47;;;;;;;6.20;1.95;;;20.90;99.90;;;;;;4991780;28;20050;-91
2023/09/30 11:39:28;;;;;;;4.50;1.63;;;21.30;99.90;;;;;;5002030;28;20049;-90
2023/09/30 11:41:56;;;;;;;4.60;2.05;;;21.70;99.90;;;;;;4994995;28;20057;-90
2023/09/30 11:44:22;;;;;;;7.72;2.05;;;21.60;99.90;;;;;;5003287;28;20060;-90
2023/09/30 11:46:55;;;;;;;6.30;1.95;;;21.70;99.90;;;;;;5005675;28;20473;-90
2023/09/30 11:49:29;;;;;;;4.38;1.98;;;22.10;99.90;;;;;;5020006;28;20041;-90
2023/09/30 11:51:56;;;;;;;7.05;1.90;;;21.70;99.90;;;;;;5006117;28;20274;-90
2023/09/30 11:54:22;;;;;;;4.60;1.90;;;21.20;99.90;;;;;;5000905;28;20044;-90
2023/09/30 11:56:50;;;;;;;6.93;2.08;;;21.10;99.90;;;;;;5006274;28;20042;-90
2023/09/30 11:59:19;;;;;;;5.13;2.15;;;20.80;99.90;;;;;;5001262;28;20035;-91
2023/09/30 12:01:45;;;;;;;4.57;1.80;;;20.40;99.90;;;;;;4995050;28;20049;-90
2023/09/30 12:04:11;;;;;;;6.25;2.13;;;20.10;99.90;;;;;;5001540;28;20037;-90
2023/09/30 12:06:38;;;;;;;4.97;1.95;;;19.70;99.90;;;;;;5004326;28;20077;-89
2023/09/30 12:09:04;;;;;;;5.63;1.80;;;19.50;99.90;;;;;;4988518;28;20076;-90
2023/09/30 12:11:29;;;;;;;7.38;2.00;;;19.20;99.90;;;;;;5002860;28;20456;-90
2023/09/30 12:13:55;;;;;;;6.32;1.65;;;18.90;99.90;;;;;;5004531;28;20095;-91
2023/09/30 12:16:21;;;;;;;6.32;1.58;;;18.60;99.90;;;;;;5003057;28;20780;-90
2023/09/30 12:18:47;;;;;;;4.20;1.40;;;18.80;99.90;;;;;;5005421;28;20034;-90
2023/09/30 12:21:19;;;;;;;6.15;1.23;;;18.90;99.90;;;;;;4997160;28;20052;-89
2023/09/30 12:23:45;;;;;;;5.35;1.30;;;18.70;99.90;;;;;;4987519;28;20180;-90
2023/09/30 12:26:12;;;;;;;6.82;1.88;;;18.80;99.90;;;;;;4996620;28;20440;-88
2023/09/30 12:28:40;;;;;;;6.82;2.08;;;18.90;99.90;;;;;;5004124;28;20084;-90
2023/09/30 12:31:06;;;;;;;5.60;1.45;;;19.00;99.90;;;;;;4993054;28;20167;-91
2023/09/30 12:33:34;;;;;;;6.13;1.40;;;19.50;99.90;;;;;;4980850;28;20045;-90
2023/09/30 12:36:00;;;;;;;4.88;1.33;;;19.60;99.90;;;;;;4987472;28;20103;-90
2023/09/30 12:38:27;;;;;;;7.45;1.80;;;19.80;99.90;;;;;;5001697;28;20044;-90
2023/09/30 12:40:53;;;;;;;4.35;1.58;;;19.90;99.90;;;;;;4989194;28;20053;-91
2023/09/30 12:43:19;;;;;;;6.57;1.98;;;19.70;99.90;;;;;;5013402;28;20156;-89